BEE2247 EGJJ-EGJB

Flight info

Callsign BEE2247
Flight time 0h 15m
Altitude 4000
Route DCT GUR DCT
Aircraft E195/M-VGDW/C

Departure

Time 2026-04-21 11:24
Airport Jersey Airport (EGJJ)

Arrival

Time 2026-04-21 11:39
Airport Guernsey Airport (EGJB)
Time Latitude Longitude Altitude Speed Heading
2026-04-21 11:12 49.20563 -2.19638 283 ft 0 kts 159°
2026-04-21 11:17 49.20564 -2.19638 283 ft 0 kts 159°
2026-04-21 11:19 49.20579 -2.19648 285 ft 2 kts 159°
2026-04-21 11:20 49.20594 -2.19657 287 ft 2 kts 159°
2026-04-21 11:20 49.20609 -2.19665 283 ft 2 kts 161°
2026-04-21 11:20 49.20625 -2.19673 283 ft 2 kts 171°
2026-04-21 11:20 49.20640 -2.19672 283 ft 1 kts 209°
2026-04-21 11:21 49.20643 -2.19669 283 ft 0 kts 211°
2026-04-21 11:21 49.20642 -2.19671 283 ft 1 kts 211°
2026-04-21 11:21 49.20621 -2.19701 283 ft 7 kts 241°
2026-04-21 11:21 49.20609 -2.19815 283 ft 14 kts 262°
2026-04-21 11:22 49.20592 -2.19913 283 ft 10 kts 219°
2026-04-21 11:22 49.20528 -2.19939 283 ft 9 kts 202°
2026-04-21 11:22 49.20524 -2.20023 283 ft 12 kts 287°
2026-04-21 11:22 49.20559 -2.20196 283 ft 20 kts 287°
2026-04-21 11:23 49.20601 -2.20406 283 ft 21 kts 285°
2026-04-21 11:23 49.20627 -2.20615 283 ft 17 kts 272°
2026-04-21 11:23 49.20696 -2.20690 287 ft 14 kts 44°
2026-04-21 11:23 49.20722 -2.20459 282 ft 53 kts 82°
2026-04-21 11:24 49.20809 -2.19463 378 ft 123 kts 79°
2026-04-21 11:24 49.20942 -2.18109 1237 ft 138 kts 79°
2026-04-21 11:24 49.21079 -2.16666 2489 ft 136 kts 81°
2026-04-21 11:24 49.21338 -2.15348 3001 ft 127 kts 53°
2026-04-21 11:25 49.22308 -2.14686 2958 ft 188 kts 12°
2026-04-21 11:25 49.23713 -2.15050 2902 ft 225 kts 343°
2026-04-21 11:25 49.25062 -2.16463 3169 ft 243 kts 320°
2026-04-21 11:25 49.26191 -2.18658 3860 ft 273 kts 307°
2026-04-21 11:26 49.27310 -2.21169 4007 ft 285 kts 307°
2026-04-21 11:26 49.28404 -2.23660 4134 ft 281 kts 307°
2026-04-21 11:26 49.29492 -2.26158 4103 ft 282 kts 306°
2026-04-21 11:26 49.30562 -2.28635 4209 ft 284 kts 307°
2026-04-21 11:27 49.31306 -2.30336 4167 ft 286 kts 307°
2026-04-21 11:27 49.32773 -2.33659 3970 ft 282 kts 308°
2026-04-21 11:27 49.33874 -2.36145 4029 ft 281 kts 307°
2026-04-21 11:27 49.34965 -2.38637 4012 ft 283 kts 307°
2026-04-21 11:28 49.36044 -2.41149 3966 ft 280 kts 306°
2026-04-21 11:28 49.37084 -2.43670 3990 ft 281 kts 305°
2026-04-21 11:28 49.37765 -2.45383 3967 ft 285 kts 303°
2026-04-21 11:28 49.38778 -2.47964 3904 ft 277 kts 304°
2026-04-21 11:29 49.39811 -2.50532 3795 ft 285 kts 305°
2026-04-21 11:29 49.40867 -2.53094 3705 ft 278 kts 306°
2026-04-21 11:29 49.41907 -2.55530 3110 ft 266 kts 307°
2026-04-21 11:29 49.42743 -2.57958 2701 ft 252 kts 295°
2026-04-21 11:30 49.43344 -2.60353 2583 ft 224 kts 291°
2026-04-21 11:30 49.43574 -2.62526 2832 ft 193 kts 273°
2026-04-21 11:30 49.43562 -2.64653 2882 ft 213 kts 269°
2026-04-21 11:30 49.43495 -2.67065 3036 ft 241 kts 267°
2026-04-21 11:31 49.43412 -2.69632 3192 ft 235 kts 266°
2026-04-21 11:31 49.43638 -2.72006 3301 ft 222 kts 307°
2026-04-21 11:31 49.44764 -2.73445 3239 ft 209 kts 340°
2026-04-21 11:31 49.46044 -2.74352 3317 ft 197 kts 353°
2026-04-21 11:32 49.47528 -2.74796 3288 ft 224 kts 358°
2026-04-21 11:32 49.48974 -2.75253 3353 ft 201 kts 355°
2026-04-21 11:32 49.50255 -2.75909 3382 ft 200 kts 337°
2026-04-21 11:32 49.51223 -2.77528 3284 ft 214 kts 300°
2026-04-21 11:33 49.51434 -2.79802 2999 ft 220 kts 253°
2026-04-21 11:33 49.50720 -2.81763 2907 ft 206 kts 221°
2026-04-21 11:33 49.49683 -2.83254 2858 ft 202 kts 212°
2026-04-21 11:33 49.48589 -2.84578 2671 ft 198 kts 209°
2026-04-21 11:34 49.47429 -2.85645 2528 ft 193 kts 194°
2026-04-21 11:34 49.46151 -2.86144 2458 ft 185 kts 173°
2026-04-21 11:34 49.44946 -2.85799 2576 ft 173 kts 149°
2026-04-21 11:34 49.43971 -2.84831 2551 ft 164 kts 127°
2026-04-21 11:35 49.43315 -2.83509 2618 ft 150 kts 117°
2026-04-21 11:35 49.42887 -2.82095 2688 ft 145 kts 96°
2026-04-21 11:35 49.42911 -2.80550 2667 ft 146 kts 86°
2026-04-21 11:35 49.42970 -2.79007 2564 ft 141 kts 86°
2026-04-21 11:36 49.43019 -2.77538 2448 ft 134 kts 85°
2026-04-21 11:36 49.43090 -2.76119 2458 ft 133 kts 86°
2026-04-21 11:36 49.43119 -2.74667 2285 ft 140 kts 88°
2026-04-21 11:36 49.43125 -2.73167 2070 ft 136 kts 88°
2026-04-21 11:37 49.43142 -2.71713 1782 ft 136 kts 86°
2026-04-21 11:37 49.43186 -2.70304 1579 ft 126 kts 86°
2026-04-21 11:37 49.43234 -2.69026 1368 ft 115 kts 84°
2026-04-21 11:37 49.43291 -2.67841 1198 ft 110 kts 85°
2026-04-21 11:38 49.43320 -2.66609 1066 ft 121 kts 82°
2026-04-21 11:38 49.43362 -2.65302 854 ft 121 kts 85°
2026-04-21 11:38 49.43396 -2.64018 677 ft 121 kts 86°
2026-04-21 11:38 49.43430 -2.62711 522 ft 124 kts 84°
2026-04-21 11:39 49.43463 -2.61410 337 ft 120 kts 84°
2026-04-21 11:39 49.43495 -2.60239 312 ft 89 kts 85°
2026-04-21 11:39 49.43504 -2.59898 321 ft 9 kts 103°
2026-04-21 11:39 49.43459 -2.59863 322 ft 7 kts 174°
2026-04-21 11:40 49.43412 -2.59857 323 ft 7 kts 175°
2026-04-21 11:40 49.43359 -2.59851 323 ft 8 kts 165°
2026-04-21 11:40 49.43346 -2.59801 326 ft 3 kts 84°
2026-04-21 11:40 49.43349 -2.59773 325 ft 3 kts 82°
2026-04-21 11:41 49.43350 -2.59757 326 ft 0 kts 81°
2026-04-21 11:41 49.43352 -2.59751 326 ft 3 kts 75°
2026-04-21 11:41 49.43360 -2.59702 326 ft 7 kts 81°
2026-04-21 11:42 49.43361 -2.59625 328 ft 7 kts 88°
2026-04-21 11:42 49.43364 -2.59550 328 ft 7 kts 86°
2026-04-21 11:42 49.43350 -2.59512 327 ft 2 kts 162°
2026-04-21 11:42 49.43325 -2.59513 330 ft 7 kts 177°
2026-04-21 11:43 49.43302 -2.59511 328 ft 0 kts 177°
2026-04-21 11:43 49.43297 -2.59511 328 ft 1 kts 177°
2026-04-21 11:43 49.43296 -2.59511 328 ft 0 kts 177°